sensor_id;sensor_type;location;lat;lon;timestamp;temperature;humidity
15789;DHT22;59075;50.670;6.474;2022-10-22T05:00:34;20.20;99.90
15789;DHT22;59075;50.670;6.474;2022-10-22T05:03:01;20.20;99.90
15789;DHT22;59075;50.670;6.474;2022-10-22T05:05:27;20.20;99.90
15789;DHT22;59075;50.670;6.474;2022-10-22T05:07:54;20.20;99.90
15789;DHT22;59075;50.670;6.474;2022-10-22T05:10:21;20.20;99.90
15789;DHT22;59075;50.670;6.474;2022-10-22T05:12:47;20.20;99.90
15789;DHT22;59075;50.670;6.474;2022-10-22T05:15:14;20.20;99.90
15789;DHT22;59075;50.670;6.474;2022-10-22T05:17:42;20.20;99.90
15789;DHT22;59075;50.670;6.474;2022-10-22T05:20:09;20.20;99.90
15789;DHT22;59075;50.670;6.474;2022-10-22T05:22:36;20.20;99.90
15789;DHT22;59075;50.670;6.474;2022-10-22T05:25:03;20.20;99.90
15789;DHT22;59075;50.670;6.474;2022-10-22T05:27:30;20.20;99.90
15789;DHT22;59075;50.670;6.474;2022-10-22T05:29:57;20.20;99.90
15789;DHT22;59075;50.670;6.474;2022-10-22T05:32:23;20.20;99.90
15789;DHT22;59075;50.670;6.474;2022-10-22T05:34:51;20.20;99.90
15789;DHT22;59075;50.670;6.474;2022-10-22T05:37:18;20.20;99.90
15789;DHT22;59075;50.670;6.474;2022-10-22T05:39:45;20.20;99.90
15789;DHT22;59075;50.670;6.474;2022-10-22T05:42:11;20.20;99.90
15789;DHT22;59075;50.670;6.474;2022-10-22T05:44:38;20.20;99.90
15789;DHT22;59075;50.670;6.474;2022-10-22T05:47:05;20.20;99.90
15789;DHT22;59075;50.670;6.474;2022-10-22T05:49:32;20.20;99.90
15789;DHT22;59075;50.670;6.474;2022-10-22T05:52:00;20.20;99.90
15789;DHT22;59075;50.670;6.474;2022-10-22T05:54:26;20.20;99.90
15789;DHT22;59075;50.670;6.474;2022-10-22T05:56:53;20.20;99.90
15789;DHT22;59075;50.670;6.474;2022-10-22T05:59:20;20.20;99.90
15789;DHT22;59075;50.670;6.474;2022-10-22T06:04:14;20.20;99.90
15789;DHT22;59075;50.670;6.474;2022-10-22T06:06:44;20.20;99.90
15789;DHT22;59075;50.670;6.474;2022-10-22T06:09:16;20.20;99.90
15789;DHT22;59075;50.670;6.474;2022-10-22T06:11:43;20.20;99.90
15789;DHT22;59075;50.670;6.474;2022-10-22T06:14:11;20.20;99.90
15789;DHT22;59075;50.670;6.474;2022-10-22T06:16:37;20.20;99.90
15789;DHT22;59075;50.670;6.474;2022-10-22T06:19:05;20.20;99.90
15789;DHT22;59075;50.670;6.474;2022-10-22T06:21:32;20.20;99.90
15789;DHT22;59075;50.670;6.474;2022-10-22T06:23:59;20.20;99.90
15789;DHT22;59075;50.670;6.474;2022-10-22T06:26:28;20.20;99.90
15789;DHT22;59075;50.670;6.474;2022-10-22T06:28:55;20.20;99.90
15789;DHT22;59075;50.670;6.474;2022-10-22T06:31:22;20.20;99.90
15789;DHT22;59075;50.670;6.474;2022-10-22T06:33:49;20.20;99.90
15789;DHT22;59075;50.670;6.474;2022-10-22T06:36:17;20.20;99.90
15789;DHT22;59075;50.670;6.474;2022-10-22T06:38:44;20.20;99.90
15789;DHT22;59075;50.670;6.474;2022-10-22T06:41:13;20.20;99.90
15789;DHT22;59075;50.670;6.474;2022-10-22T06:43:42;20.20;99.90
15789;DHT22;59075;50.670;6.474;2022-10-22T06:46:12;20.20;99.90
15789;DHT22;59075;50.670;6.474;2022-10-22T06:48:39;20.20;99.90
15789;DHT22;59075;50.670;6.474;2022-10-22T06:51:07;20.20;99.90
15789;DHT22;59075;50.670;6.474;2022-10-22T06:53:35;20.20;99.90
15789;DHT22;59075;50.670;6.474;2022-10-22T06:56:04;20.20;99.90
15789;DHT22;59075;50.670;6.474;2022-10-22T06:58:31;20.20;99.90
15789;DHT22;59075;50.670;6.474;2022-10-22T07:01:03;20.20;99.90
15789;DHT22;59075;50.670;6.474;2022-10-22T07:03:30;20.20;99.90
15789;DHT22;59075;50.670;6.474;2022-10-22T07:05:58;20.20;99.90
15789;DHT22;59075;50.670;6.474;2022-10-22T07:08:26;20.20;99.90
15789;DHT22;59075;50.670;6.474;2022-10-22T07:10:52;20.20;99.90
15789;DHT22;59075;50.670;6.474;2022-10-22T07:13:19;20.20;99.90
15789;DHT22;59075;50.670;6.474;2022-10-22T07:18:19;20.30;99.90
15789;DHT22;59075;50.670;6.474;2022-10-22T07:20:46;20.30;99.90
15789;DHT22;59075;50.670;6.474;2022-10-22T07:23:13;20.30;99.90
15789;DHT22;59075;50.670;6.474;2022-10-22T07:25:40;20.30;99.90
15789;DHT22;59075;50.670;6.474;2022-10-22T07:28:07;20.30;99.90
15789;DHT22;59075;50.670;6.474;2022-10-22T07:30:35;20.30;99.90
15789;DHT22;59075;50.670;6.474;2022-10-22T07:33:02;20.20;99.90
15789;DHT22;59075;50.670;6.474;2022-10-22T07:35:31;20.30;99.90
15789;DHT22;59075;50.670;6.474;2022-10-22T07:37:58;20.20;99.90
15789;DHT22;59075;50.670;6.474;2022-10-22T07:40:25;20.20;99.90
15789;DHT22;59075;50.670;6.474;2022-10-22T07:42:52;20.30;99.90
15789;DHT22;59075;50.670;6.474;2022-10-22T07:45:19;20.30;99.90
15789;DHT22;59075;50.670;6.474;2022-10-22T07:47:46;20.30;99.90
15789;DHT22;59075;50.670;6.474;2022-10-22T07:50:13;20.30;99.90
15789;DHT22;59075;50.670;6.474;2022-10-22T07:52:41;20.30;99.90
15789;DHT22;59075;50.670;6.474;2022-10-22T07:55:08;20.30;99.90
15789;DHT22;59075;50.670;6.474;2022-10-22T07:57:35;20.20;99.90
15789;DHT22;59075;50.670;6.474;2022-10-22T08:02:29;20.20;99.90
15789;DHT22;59075;50.670;6.474;2022-10-22T08:04:56;20.20;99.90
15789;DHT22;59075;50.670;6.474;2022-10-22T08:07:23;20.10;99.90
15789;DHT22;59075;50.670;6.474;2022-10-22T08:09:51;20.10;99.90
15789;DHT22;59075;50.670;6.474;2022-10-22T08:12:19;20.10;99.90
15789;DHT22;59075;50.670;6.474;2022-10-22T08:14:45;20.10;99.90
15789;DHT22;59075;50.670;6.474;2022-10-22T08:17:12;20.20;99.90
15789;DHT22;59075;50.670;6.474;2022-10-22T08:19:39;20.20;99.90
15789;DHT22;59075;50.670;6.474;2022-10-22T08:22:05;20.20;99.90
15789;DHT22;59075;50.670;6.474;2022-10-22T08:24:32;20.20;99.90
15789;DHT22;59075;50.670;6.474;2022-10-22T08:27:00;20.20;99.90
15789;DHT22;59075;50.670;6.474;2022-10-22T08:29:27;20.20;99.90
15789;DHT22;59075;50.670;6.474;2022-10-22T08:31:54;20.10;99.90
15789;DHT22;59075;50.670;6.474;2022-10-22T08:34:20;20.10;99.90
15789;DHT22;59075;50.670;6.474;2022-10-22T08:36:47;20.20;99.90
15789;DHT22;59075;50.670;6.474;2022-10-22T08:39:14;20.20;99.90
15789;DHT22;59075;50.670;6.474;2022-10-22T08:41:46;20.20;99.90
15789;DHT22;59075;50.670;6.474;2022-10-22T08:47:20;20.10;99.90
15789;DHT22;59075;50.670;6.474;2022-10-22T08:49:52;20.20;99.90
15789;DHT22;59075;50.670;6.474;2022-10-22T08:52:21;20.00;99.90
15789;DHT22;59075;50.670;6.474;2022-10-22T08:54:51;20.10;99.90
15789;DHT22;59075;50.670;6.474;2022-10-22T08:57:28;20.10;99.90
15789;DHT22;59075;50.670;6.474;2022-10-22T09:02:36;20.10;99.90
15789;DHT22;59075;50.670;6.474;2022-10-22T09:05:18;20.10;99.90
15789;DHT22;59075;50.670;6.474;2022-10-22T09:07:47;20.10;99.90
15789;DHT22;59075;50.670;6.474;2022-10-22T09:10:16;20.10;99.90
15789;DHT22;59075;50.670;6.474;2022-10-22T09:12:43;20.10;99.90
15789;DHT22;59075;50.670;6.474;2022-10-22T09:15:14;20.10;99.90
15789;DHT22;59075;50.670;6.474;2022-10-22T09:17:50;20.10;99.90
15789;DHT22;59075;50.670;6.474;2022-10-22T09:20:24;20.10;99.90
15789;DHT22;59075;50.670;6.474;2022-10-22T09:26:00;20.10;99.90
15789;DHT22;59075;50.670;6.474;2022-10-22T09:28:27;20.10;99.90
15789;DHT22;59075;50.670;6.474;2022-10-22T09:30:55;20.10;99.90
15789;DHT22;59075;50.670;6.474;2022-10-22T09:33:25;20.10;99.90
15789;DHT22;59075;50.670;6.474;2022-10-22T09:35:53;20.10;99.90
15789;DHT22;59075;50.670;6.474;2022-10-22T09:38:23;20.10;99.90
15789;DHT22;59075;50.670;6.474;2022-10-22T09:40:53;20.10;99.90
15789;DHT22;59075;50.670;6.474;2022-10-22T09:43:20;20.10;99.90
15789;DHT22;59075;50.670;6.474;2022-10-22T09:48:21;20.10;99.90
15789;DHT22;59075;50.670;6.474;2022-10-22T09:50:58;20.10;99.90
15789;DHT22;59075;50.670;6.474;2022-10-22T09:53:27;20.10;99.90
15789;DHT22;59075;50.670;6.474;2022-10-22T09:55:57;20.10;99.90
15789;DHT22;59075;50.670;6.474;2022-10-22T09:58:24;20.20;99.90
15789;DHT22;59075;50.670;6.474;2022-10-22T10:03:21;20.20;99.90
15789;DHT22;59075;50.670;6.474;2022-10-22T10:05:51;20.20;99.90
15789;DHT22;59075;50.670;6.474;2022-10-22T10:08:19;20.20;99.90
15789;DHT22;59075;50.670;6.474;2022-10-22T10:10:47;20.20;99.90
15789;DHT22;59075;50.670;6.474;2022-10-22T10:16:28;20.20;99.90
15789;DHT22;59075;50.670;6.474;2022-10-22T10:19:14;20.20;99.90
15789;DHT22;59075;50.670;6.474;2022-10-22T10:21:48;20.20;99.90
15789;DHT22;59075;50.670;6.474;2022-10-22T10:24:25;20.20;99.90
15789;DHT22;59075;50.670;6.474;2022-10-22T10:26:58;20.20;99.90
15789;DHT22;59075;50.670;6.474;2022-10-22T10:29:38;20.30;99.90
15789;DHT22;59075;50.670;6.474;2022-10-22T10:32:33;20.30;99.90
15789;DHT22;59075;50.670;6.474;2022-10-22T10:35:14;20.30;99.90
15789;DHT22;59075;50.670;6.474;2022-10-22T10:37:45;20.30;99.90
15789;DHT22;59075;50.670;6.474;2022-10-22T10:40:26;20.30;99.90
15789;DHT22;59075;50.670;6.474;2022-10-22T10:42:56;20.30;99.90
15789;DHT22;59075;50.670;6.474;2022-10-22T10:45:36;20.30;99.90
15789;DHT22;59075;50.670;6.474;2022-10-22T10:48:32;20.30;99.90
15789;DHT22;59075;50.670;6.474;2022-10-22T10:51:07;20.30;99.90
15789;DHT22;59075;50.670;6.474;2022-10-22T10:56:27;20.30;99.90
15789;DHT22;59075;50.670;6.474;2022-10-22T10:59:02;20.30;99.90
15789;DHT22;59075;50.670;6.474;2022-10-22T11:01:39;20.30;99.90
15789;DHT22;59075;50.670;6.474;2022-10-22T11:07:08;20.30;99.90
15789;DHT22;59075;50.670;6.474;2022-10-22T11:09:39;20.30;99.90
15789;DHT22;59075;50.670;6.474;2022-10-22T11:12:11;20.30;99.90
15789;DHT22;59075;50.670;6.474;2022-10-22T11:14:51;20.30;99.90
15789;DHT22;59075;50.670;6.474;2022-10-22T11:17:22;20.30;99.90
15789;DHT22;59075;50.670;6.474;2022-10-22T11:19:55;20.30;99.90
15789;DHT22;59075;50.670;6.474;2022-10-22T11:22:29;20.30;99.90
15789;DHT22;59075;50.670;6.474;2022-10-22T11:25:01;20.30;99.90
15789;DHT22;59075;50.670;6.474;2022-10-22T11:28:10;20.30;99.90
15789;DHT22;59075;50.670;6.474;2022-10-22T11:30:40;20.40;99.90
15789;DHT22;59075;50.670;6.474;2022-10-22T11:33:11;20.40;99.90
15789;DHT22;59075;50.670;6.474;2022-10-22T11:35:42;20.40;99.90
15789;DHT22;59075;50.670;6.474;2022-10-22T11:38:14;20.40;99.90
15789;DHT22;59075;50.670;6.474;2022-10-22T11:40:45;20.40;99.90
15789;DHT22;59075;50.670;6.474;2022-10-22T11:43:26;20.40;99.90
15789;DHT22;59075;50.670;6.474;2022-10-22T11:46:00;20.40;99.90
15789;DHT22;59075;50.670;6.474;2022-10-22T11:48:35;20.40;99.90
15789;DHT22;59075;50.670;6.474;2022-10-22T11:51:03;20.40;99.90
15789;DHT22;59075;50.670;6.474;2022-10-22T11:53:32;20.40;99.90
15789;DHT22;59075;50.670;6.474;2022-10-22T11:58:46;20.40;99.90
15789;DHT22;59075;50.670;6.474;2022-10-22T12:01:22;20.40;99.90
15789;DHT22;59075;50.670;6.474;2022-10-22T12:03:50;20.40;99.90
15789;DHT22;59075;50.670;6.474;2022-10-22T12:06:19;20.40;99.90
15789;DHT22;59075;50.670;6.474;2022-10-22T12:08:55;20.40;99.90
15789;DHT22;59075;50.670;6.474;2022-10-22T12:11:24;20.40;99.90
15789;DHT22;59075;50.670;6.474;2022-10-22T12:16:44;20.40;99.90
15789;DHT22;59075;50.670;6.474;2022-10-22T12:19:13;20.40;99.90
15789;DHT22;59075;50.670;6.474;2022-10-22T12:21:44;20.40;99.90
15789;DHT22;59075;50.670;6.474;2022-10-22T12:24:15;20.40;99.90
15789;DHT22;59075;50.670;6.474;2022-10-22T12:26:43;20.40;99.90
15789;DHT22;59075;50.670;6.474;2022-10-22T12:29:13;20.40;99.90
15789;DHT22;59075;50.670;6.474;2022-10-22T12:31:41;20.40;99.90
15789;DHT22;59075;50.670;6.474;2022-10-22T12:34:13;20.40;99.90
15789;DHT22;59075;50.670;6.474;2022-10-22T12:36:40;20.40;99.90
15789;DHT22;59075;50.670;6.474;2022-10-22T12:39:14;20.40;99.90
15789;DHT22;59075;50.670;6.474;2022-10-22T12:41:41;20.50;99.90
15789;DHT22;59075;50.670;6.474;2022-10-22T12:44:11;20.40;99.90
15789;DHT22;59075;50.670;6.474;2022-10-22T12:46:39;20.50;99.90
15789;DHT22;59075;50.670;6.474;2022-10-22T12:49:12;20.50;99.90
15789;DHT22;59075;50.670;6.474;2022-10-22T12:51:42;20.50;99.90
15789;DHT22;59075;50.670;6.474;2022-10-22T12:54:22;20.50;99.90
15789;DHT22;59075;50.670;6.474;2022-10-22T12:56:54;20.50;99.90
15789;DHT22;59075;50.670;6.474;2022-10-22T12:59:24;20.50;99.90
15789;DHT22;59075;50.670;6.474;2022-10-22T13:01:52;20.50;99.90
15789;DHT22;59075;50.670;6.474;2022-10-22T13:04:30;20.60;99.90
15789;DHT22;59075;50.670;6.474;2022-10-22T13:07:16;20.60;99.90
15789;DHT22;59075;50.670;6.474;2022-10-22T13:09:46;20.60;99.90
15789;DHT22;59075;50.670;6.474;2022-10-22T13:12:13;20.60;99.90
15789;DHT22;59075;50.670;6.474;2022-10-22T13:14:44;20.60;99.90
15789;DHT22;59075;50.670;6.474;2022-10-22T13:17:13;20.60;99.90
15789;DHT22;59075;50.670;6.474;2022-10-22T13:19:46;20.60;99.90
15789;DHT22;59075;50.670;6.474;2022-10-22T13:22:32;20.60;99.90
15789;DHT22;59075;50.670;6.474;2022-10-22T13:25:18;20.60;99.90
15789;DHT22;59075;50.670;6.474;2022-10-22T13:27:47;20.60;99.90
15789;DHT22;59075;50.670;6.474;2022-10-22T13:30:18;20.60;99.90
15789;DHT22;59075;50.670;6.474;2022-10-22T13:32:49;20.60;99.90
15789;DHT22;59075;50.670;6.474;2022-10-22T13:35:18;20.60;99.90
15789;DHT22;59075;50.670;6.474;2022-10-22T13:40:15;20.60;99.90
15789;DHT22;59075;50.670;6.474;2022-10-22T13:42:41;20.60;99.90
15789;DHT22;59075;50.670;6.474;2022-10-22T13:45:08;20.60;99.90
15789;DHT22;59075;50.670;6.474;2022-10-22T13:47:35;20.60;99.90
15789;DHT22;59075;50.670;6.474;2022-10-22T13:52:35;20.80;99.90
15789;DHT22;59075;50.670;6.474;2022-10-22T13:55:14;20.70;99.90
15789;DHT22;59075;50.670;6.474;2022-10-22T13:57:40;20.70;99.90
15789;DHT22;59075;50.670;6.474;2022-10-22T14:00:10;20.70;99.90
15789;DHT22;59075;50.670;6.474;2022-10-22T14:02:37;20.70;99.90
15789;DHT22;59075;50.670;6.474;2022-10-22T14:05:05;20.70;99.90
15789;DHT22;59075;50.670;6.474;2022-10-22T14:07:33;20.60;99.90
15789;DHT22;59075;50.670;6.474;2022-10-22T14:10:00;20.60;99.90
15789;DHT22;59075;50.670;6.474;2022-10-22T14:12:29;20.60;99.90
15789;DHT22;59075;50.670;6.474;2022-10-22T14:14:56;20.70;99.90
15789;DHT22;59075;50.670;6.474;2022-10-22T14:17:22;20.60;99.90
15789;DHT22;59075;50.670;6.474;2022-10-22T14:19:49;20.60;99.90
15789;DHT22;59075;50.670;6.474;2022-10-22T14:22:17;20.60;99.90
15789;DHT22;59075;50.670;6.474;2022-10-22T14:24:45;20.60;99.90
15789;DHT22;59075;50.670;6.474;2022-10-22T14:27:13;20.60;99.90
15789;DHT22;59075;50.670;6.474;2022-10-22T14:29:42;20.70;99.90
15789;DHT22;59075;50.670;6.474;2022-10-22T14:32:12;20.70;99.90
15789;DHT22;59075;50.670;6.474;2022-10-22T14:34:40;20.70;99.90
15789;DHT22;59075;50.670;6.474;2022-10-22T14:37:14;20.70;99.90
15789;DHT22;59075;50.670;6.474;2022-10-22T14:39:41;20.70;99.90
15789;DHT22;59075;50.670;6.474;2022-10-22T14:42:09;20.80;99.90
15789;DHT22;59075;50.670;6.474;2022-10-22T14:44:36;20.80;99.90
15789;DHT22;59075;50.670;6.474;2022-10-22T14:47:04;20.80;99.90
15789;DHT22;59075;50.670;6.474;2022-10-22T14:49:31;20.80;99.90
15789;DHT22;59075;50.670;6.474;2022-10-22T14:54:24;20.80;99.90
15789;DHT22;59075;50.670;6.474;2022-10-22T14:59:18;20.80;99.90
15789;DHT22;59075;50.670;6.474;2022-10-22T15:01:45;20.80;99.90
15789;DHT22;59075;50.670;6.474;2022-10-22T15:04:13;20.80;99.90
15789;DHT22;59075;50.670;6.474;2022-10-22T15:06:39;20.80;99.90
15789;DHT22;59075;50.670;6.474;2022-10-22T15:11:33;20.80;99.90
15789;DHT22;59075;50.670;6.474;2022-10-22T15:14:00;20.80;99.90
15789;DHT22;59075;50.670;6.474;2022-10-22T15:16:27;20.80;99.90
15789;DHT22;59075;50.670;6.474;2022-10-22T15:18:53;20.80;99.90
15789;DHT22;59075;50.670;6.474;2022-10-22T15:21:22;20.80;99.90
15789;DHT22;59075;50.670;6.474;2022-10-22T15:23:49;20.80;99.90
15789;DHT22;59075;50.670;6.474;2022-10-22T15:26:16;20.80;99.90
15789;DHT22;59075;50.670;6.474;2022-10-22T15:28:43;20.80;99.90
15789;DHT22;59075;50.670;6.474;2022-10-22T15:31:11;20.80;99.90
15789;DHT22;59075;50.670;6.474;2022-10-22T15:33:40;20.80;99.90
15789;DHT22;59075;50.670;6.474;2022-10-22T15:36:11;20.70;99.90
15789;DHT22;59075;50.670;6.474;2022-10-22T15:38:40;20.70;99.90
15789;DHT22;59075;50.670;6.474;2022-10-22T15:41:08;20.70;99.90
15789;DHT22;59075;50.670;6.474;2022-10-22T15:43:35;20.70;99.90
15789;DHT22;59075;50.670;6.474;2022-10-22T15:46:09;20.70;99.90
15789;DHT22;59075;50.670;6.474;2022-10-22T15:48:36;20.70;99.90
15789;DHT22;59075;50.670;6.474;2022-10-22T15:51:07;20.70;99.90
15789;DHT22;59075;50.670;6.474;2022-10-22T15:53:34;20.70;99.90
15789;DHT22;59075;50.670;6.474;2022-10-22T15:56:02;20.70;99.90
15789;DHT22;59075;50.670;6.474;2022-10-22T15:58:29;20.70;99.90
15789;DHT22;59075;50.670;6.474;2022-10-22T16:01:03;20.70;99.90
15789;DHT22;59075;50.670;6.474;2022-10-22T16:03:30;20.60;99.90
15789;DHT22;59075;50.670;6.474;2022-10-22T16:08:24;20.70;99.90
15789;DHT22;59075;50.670;6.474;2022-10-22T16:10:51;20.70;99.90
15789;DHT22;59075;50.670;6.474;2022-10-22T16:13:19;20.60;99.90
15789;DHT22;59075;50.670;6.474;2022-10-22T16:15:48;20.60;99.90
15789;DHT22;59075;50.670;6.474;2022-10-22T16:18:15;20.60;99.90
15789;DHT22;59075;50.670;6.474;2022-10-22T16:20:41;20.60;99.90
15789;DHT22;59075;50.670;6.474;2022-10-22T16:25:37;20.60;99.90
15789;DHT22;59075;50.670;6.474;2022-10-22T16:28:04;20.60;99.90
15789;DHT22;59075;50.670;6.474;2022-10-22T16:30:33;20.60;99.90
15789;DHT22;59075;50.670;6.474;2022-10-22T16:33:00;20.60;99.90
15789;DHT22;59075;50.670;6.474;2022-10-22T16:35:28;20.60;99.90
15789;DHT22;59075;50.670;6.474;2022-10-22T16:37:54;20.60;99.90
15789;DHT22;59075;50.670;6.474;2022-10-22T16:40:21;20.60;99.90
15789;DHT22;59075;50.670;6.474;2022-10-22T16:42:48;20.60;99.90
15789;DHT22;59075;50.670;6.474;2022-10-22T16:45:15;20.60;99.90
15789;DHT22;59075;50.670;6.474;2022-10-22T16:47:43;20.60;99.90
15789;DHT22;59075;50.670;6.474;2022-10-22T16:52:38;20.60;99.90
15789;DHT22;59075;50.670;6.474;2022-10-22T16:55:05;20.60;99.90
15789;DHT22;59075;50.670;6.474;2022-10-22T16:57:32;20.60;99.90
15789;DHT22;59075;50.670;6.474;2022-10-22T17:02:27;20.60;99.90
15789;DHT22;59075;50.670;6.474;2022-10-22T17:04:55;20.60;99.90
15789;DHT22;59075;50.670;6.474;2022-10-22T17:07:22;20.60;99.90
15789;DHT22;59075;50.670;6.474;2022-10-22T17:09:48;20.60;99.90
15789;DHT22;59075;50.670;6.474;2022-10-22T17:12:15;20.60;99.90
15789;DHT22;59075;50.670;6.474;2022-10-22T17:14:42;20.60;99.90
15789;DHT22;59075;50.670;6.474;2022-10-22T17:19:35;20.50;99.90
15789;DHT22;59075;50.670;6.474;2022-10-22T17:24:31;20.60;99.90
15789;DHT22;59075;50.670;6.474;2022-10-22T17:26:58;20.60;99.90
15789;DHT22;59075;50.670;6.474;2022-10-22T17:29:25;20.60;99.90
15789;DHT22;59075;50.670;6.474;2022-10-22T17:31:51;20.50;99.90
15789;DHT22;59075;50.670;6.474;2022-10-22T17:36:45;20.50;99.90
15789;DHT22;59075;50.670;6.474;2022-10-22T17:39:15;20.50;99.90
15789;DHT22;59075;50.670;6.474;2022-10-22T17:41:42;20.50;99.90
15789;DHT22;59075;50.670;6.474;2022-10-22T17:44:10;20.50;99.90
15789;DHT22;59075;50.670;6.474;2022-10-22T17:46:37;20.50;99.90
15789;DHT22;59075;50.670;6.474;2022-10-22T17:49:06;20.50;99.90
15789;DHT22;59075;50.670;6.474;2022-10-22T17:51:33;20.50;99.90
15789;DHT22;59075;50.670;6.474;2022-10-22T17:54:00;20.50;99.90
15789;DHT22;59075;50.670;6.474;2022-10-22T17:56:28;20.50;99.90
15789;DHT22;59075;50.670;6.474;2022-10-22T17:58:55;20.50;99.90
15789;DHT22;59075;50.670;6.474;2022-10-22T18:01:26;20.50;99.90
15789;DHT22;59075;50.670;6.474;2022-10-22T18:03:54;20.50;99.90
15789;DHT22;59075;50.670;6.474;2022-10-22T18:06:20;20.50;99.90
15789;DHT22;59075;50.670;6.474;2022-10-22T18:08:47;20.50;99.90
15789;DHT22;59075;50.670;6.474;2022-10-22T18:11:17;20.60;99.90
15789;DHT22;59075;50.670;6.474;2022-10-22T18:16:14;20.60;99.90
15789;DHT22;59075;50.670;6.474;2022-10-22T18:18:44;20.60;99.90
15789;DHT22;59075;50.670;6.474;2022-10-22T18:21:10;20.60;99.90
15789;DHT22;59075;50.670;6.474;2022-10-22T18:23:37;20.50;99.90
15789;DHT22;59075;50.670;6.474;2022-10-22T18:26:04;20.60;99.90
15789;DHT22;59075;50.670;6.474;2022-10-22T18:28:31;20.60;99.90
15789;DHT22;59075;50.670;6.474;2022-10-22T18:31:04;20.60;99.90
15789;DHT22;59075;50.670;6.474;2022-10-22T18:33:31;20.60;99.90
15789;DHT22;59075;50.670;6.474;2022-10-22T18:36:03;20.50;99.90
15789;DHT22;59075;50.670;6.474;2022-10-22T18:38:30;20.60;99.90
15789;DHT22;59075;50.670;6.474;2022-10-22T18:40:57;20.60;99.90
15789;DHT22;59075;50.670;6.474;2022-10-22T18:43:24;20.60;99.90
15789;DHT22;59075;50.670;6.474;2022-10-22T18:45:51;20.50;99.90
15789;DHT22;59075;50.670;6.474;2022-10-22T18:48:20;20.60;99.90
15789;DHT22;59075;50.670;6.474;2022-10-22T18:50:57;20.50;99.90
15789;DHT22;59075;50.670;6.474;2022-10-22T18:53:25;20.60;99.90
15789;DHT22;59075;50.670;6.474;2022-10-22T18:55:52;20.50;99.90
15789;DHT22;59075;50.670;6.474;2022-10-22T18:58:18;20.50;99.90
15789;DHT22;59075;50.670;6.474;2022-10-22T19:00:45;20.50;99.90
15789;DHT22;59075;50.670;6.474;2022-10-22T19:03:13;20.50;99.90
15789;DHT22;59075;50.670;6.474;2022-10-22T19:05:48;20.50;99.90
15789;DHT22;59075;50.670;6.474;2022-10-22T19:08:17;20.50;99.90
15789;DHT22;59075;50.670;6.474;2022-10-22T19:10:44;20.50;99.90
15789;DHT22;59075;50.670;6.474;2022-10-22T19:13:12;20.50;99.90
15789;DHT22;59075;50.670;6.474;2022-10-22T19:15:39;20.50;99.90
15789;DHT22;59075;50.670;6.474;2022-10-22T19:18:06;20.50;99.90
15789;DHT22;59075;50.670;6.474;2022-10-22T19:20:34;20.50;99.90
15789;DHT22;59075;50.670;6.474;2022-10-22T19:23:02;20.50;99.90
15789;DHT22;59075;50.670;6.474;2022-10-22T19:25:30;20.50;99.90
15789;DHT22;59075;50.670;6.474;2022-10-22T19:30:23;20.50;99.90
15789;DHT22;59075;50.670;6.474;2022-10-22T19:32:50;20.50;99.90
15789;DHT22;59075;50.670;6.474;2022-10-22T19:35:17;20.50;99.90
15789;DHT22;59075;50.670;6.474;2022-10-22T19:37:44;20.50;99.90
15789;DHT22;59075;50.670;6.474;2022-10-22T19:40:12;20.40;99.90
15789;DHT22;59075;50.670;6.474;2022-10-22T19:42:39;20.40;99.90
15789;DHT22;59075;50.670;6.474;2022-10-22T19:45:08;20.40;99.90
15789;DHT22;59075;50.670;6.474;2022-10-22T19:47:35;20.40;99.90
15789;DHT22;59075;50.670;6.474;2022-10-22T19:50:02;20.40;99.90
15789;DHT22;59075;50.670;6.474;2022-10-22T19:52:29;20.40;99.90
15789;DHT22;59075;50.670;6.474;2022-10-22T19:54:55;20.40;99.90
15789;DHT22;59075;50.670;6.474;2022-10-22T19:57:23;20.50;99.90
15789;DHT22;59075;50.670;6.474;2022-10-22T19:59:50;20.40;99.90
15789;DHT22;59075;50.670;6.474;2022-10-22T20:02:17;20.40;99.90
15789;DHT22;59075;50.670;6.474;2022-10-22T20:04:44;20.40;99.90
15789;DHT22;59075;50.670;6.474;2022-10-22T20:07:11;20.40;99.90
15789;DHT22;59075;50.670;6.474;2022-10-22T20:09:37;20.40;99.90
15789;DHT22;59075;50.670;6.474;2022-10-22T20:12:04;20.40;99.90
15789;DHT22;59075;50.670;6.474;2022-10-22T20:14:32;20.40;99.90
15789;DHT22;59075;50.670;6.474;2022-10-22T20:16:59;20.40;99.90
15789;DHT22;59075;50.670;6.474;2022-10-22T20:19:26;20.40;99.90
15789;DHT22;59075;50.670;6.474;2022-10-22T20:21:53;20.40;99.90
15789;DHT22;59075;50.670;6.474;2022-10-22T20:24:20;20.40;99.90
15789;DHT22;59075;50.670;6.474;2022-10-22T20:26:47;20.30;99.90
15789;DHT22;59075;50.670;6.474;2022-10-22T20:29:14;20.40;99.90
15789;DHT22;59075;50.670;6.474;2022-10-22T20:31:45;20.40;99.90
15789;DHT22;59075;50.670;6.474;2022-10-22T20:34:11;20.30;99.90
15789;DHT22;59075;50.670;6.474;2022-10-22T20:36:39;20.30;99.90
15789;DHT22;59075;50.670;6.474;2022-10-22T20:39:07;20.30;99.90
15789;DHT22;59075;50.670;6.474;2022-10-22T20:41:36;20.30;99.90
15789;DHT22;59075;50.670;6.474;2022-10-22T20:44:05;20.30;99.90
15789;DHT22;59075;50.670;6.474;2022-10-22T20:46:32;20.30;99.90
15789;DHT22;59075;50.670;6.474;2022-10-22T20:49:02;20.30;99.90
15789;DHT22;59075;50.670;6.474;2022-10-22T20:51:29;20.30;99.90
15789;DHT22;59075;50.670;6.474;2022-10-22T20:53:56;20.30;99.90
15789;DHT22;59075;50.670;6.474;2022-10-22T20:56:23;20.30;99.90
15789;DHT22;59075;50.670;6.474;2022-10-22T20:58:50;20.30;99.90
